Time;durP1;ratioP1;P1;durP2;ratioP2;P2;SDS_P1;SDS_P2;PMS_P1;PMS_P2;Temp;Humidity;BMP_temperature;BMP_pressure;BME280_temperature;BME280_humidity;BME280_pressure;Samples;Min_cycle;Max_cycle;Signal;HPM_P1;HPM_P2
2022/08/22 00:01:01;;;;;;;4.53;3.50;;;;;;;21.09;72.27;98620.31;6218029;23;20004;-91
2022/08/22 00:03:50;;;;;;;5.50;3.13;;;;;;;21.23;70.89;98625.31;6195044;23;20466;-92
2022/08/22 00:06:21;;;;;;;8.80;3.80;;;;;;;21.10;71.64;98635.56;6220419;23;20131;-91
2022/08/22 00:09:14;;;;;;;5.07;3.20;;;;;;;21.17;71.73;98629.47;6218606;23;20491;-91
2022/08/22 00:11:48;;;;;;;6.15;3.08;;;;;;;21.31;70.70;98632.53;6218622;23;20012;-91
2022/08/22 00:14:33;;;;;;;5.25;3.33;;;;;;;21.31;70.86;98631.72;6213019;23;20020;-93
2022/08/22 00:17:22;;;;;;;5.10;3.28;;;;;;;21.24;70.87;98639.78;6189682;23;20340;-91
2022/08/22 00:20:06;;;;;;;4.30;3.08;;;;;;;21.20;70.33;98620.53;6212910;23;20001;-91
2022/08/22 00:22:59;;;;;;;4.35;3.05;;;;;;;21.37;69.61;98638.50;6191873;23;20061;-91
2022/08/22 00:25:35;;;;;;;3.88;2.63;;;;;;;21.39;68.36;98628.78;6214993;23;20004;-91
2022/08/22 00:28:15;;;;;;;7.15;2.95;;;;;;;20.99;70.33;98629.06;6189279;23;20065;-91
2022/08/22 00:30:53;;;;;;;3.90;2.80;;;;;;;20.92;70.27;98626.19;6240652;23;20004;-91
2022/08/22 00:33:39;;;;;;;10.35;4.22;;;;;;;20.98;72.14;98633.75;6191836;23;20386;-92
2022/08/22 00:36:24;;;;;;;8.35;4.88;;;;;;;20.79;73.41;98628.19;6190103;23;20490;-91
2022/08/22 00:39:15;;;;;;;5.03;3.92;;;;;;;20.78;73.77;98643.03;6190096;23;20412;-91
2022/08/22 00:41:59;;;;;;;6.60;3.92;;;;;;;20.71;73.97;98653.81;6190938;23;20008;-91
2022/08/22 00:44:55;;;;;;;8.05;4.50;;;;;;;20.56;73.95;98631.53;6216599;23;20007;-91
2022/08/22 00:47:40;;;;;;;5.90;3.60;;;;;;;20.60;73.45;98645.34;6216886;23;20000;-91
2022/08/22 00:50:54;;;;;;;5.00;3.42;;;;;;;20.63;73.64;98658.31;6215984;23;20005;-90
2022/08/22 00:53:49;;;;;;;5.80;3.65;;;;;;;20.65;72.98;98649.75;6208698;23;20061;-91
2022/08/22 00:56:34;;;;;;;9.88;4.13;;;;;;;20.66;73.80;98652.13;6211971;23;20013;-91
2022/08/22 00:59:08;;;;;;;5.95;4.35;;;;;;;20.53;73.97;98648.66;6214976;23;20097;-91
2022/08/22 01:01:36;;;;;;;6.60;4.40;;;;;;;20.42;74.25;98633.13;6190803;23;20058;-92
2022/08/22 01:04:27;;;;;;;6.25;4.55;;;;;;;20.51;74.22;98658.38;6189524;23;20035;-91
2022/08/22 01:07:10;;;;;;;14.73;4.72;;;;;;;20.49;74.38;98658.72;6217363;23;20004;-90
2022/08/22 01:09:45;;;;;;;7.22;4.30;;;;;;;20.47;74.48;98655.53;6214719;23;20001;-91
2022/08/22 01:12:23;;;;;;;5.53;4.30;;;;;;;20.48;74.11;98657.16;6216016;23;20004;-91
2022/08/22 01:15:08;;;;;;;7.88;4.20;;;;;;;20.47;74.04;98652.81;6214317;23;20016;-91
2022/08/22 01:17:43;;;;;;;4.97;3.47;;;;;;;20.50;73.95;98659.50;6190014;23;20054;-91
2022/08/22 01:20:23;;;;;;;5.97;3.85;;;;;;;20.52;73.86;98657.22;6216014;23;19992;-91
2022/08/22 01:23:28;;;;;;;6.20;3.95;;;;;;;20.48;74.13;98653.59;6215819;23;20398;-91
2022/08/22 01:26:31;;;;;;;6.05;4.30;;;;;;;20.47;74.06;98643.81;6214343;23;20083;-90
2022/08/22 01:29:24;;;;;;;7.55;3.90;;;;;;;20.47;73.88;98643.81;6214485;23;20436;-91
2022/08/22 01:32:11;;;;;;;7.22;4.53;;;;;;;20.45;73.79;98643.38;6216395;23;20011;-91
2022/08/22 01:34:46;;;;;;;7.15;4.60;;;;;;;20.39;73.73;98643.63;6213716;23;20055;-91
2022/08/22 01:37:38;;;;;;;6.30;4.03;;;;;;;20.35;74.37;98645.47;6214087;23;20011;-90
2022/08/22 01:40:29;;;;;;;7.28;4.43;;;;;;;20.20;74.58;98621.66;6214758;23;20427;-91
2022/08/22 01:43:34;;;;;;;9.30;4.40;;;;;;;20.30;74.92;98637.53;6213922;23;20004;-91
2022/08/22 01:46:16;;;;;;;8.80;5.07;;;;;;;20.29;75.17;98640.63;6214412;23;20434;-91
2022/08/22 01:48:52;;;;;;;6.88;4.32;;;;;;;20.28;75.43;98631.63;6213510;23;20066;-92
2022/08/22 01:51:36;;;;;;;6.53;4.22;;;;;;;20.17;75.68;98625.88;6164870;23;20000;-91
2022/08/22 01:54:25;;;;;;;5.53;4.03;;;;;;;20.18;75.68;98637.59;6192297;23;20424;-91
2022/08/22 01:56:51;;;;;;;9.00;4.68;;;;;;;20.21;75.84;98645.09;6213791;23;20008;-92
2022/08/22 01:59:23;;;;;;;6.78;4.35;;;;;;;20.16;75.91;98632.47;6188962;23;20008;-91
2022/08/22 02:01:54;;;;;;;6.70;4.20;;;;;;;20.19;75.75;98639.19;6189991;23;20020;-91
2022/08/22 02:04:42;;;;;;;7.45;4.45;;;;;;;20.15;76.02;98654.69;6215542;23;19996;-92
2022/08/22 02:07:13;;;;;;;7.32;4.38;;;;;;;20.05;76.10;98647.81;6189909;23;20027;-91
2022/08/22 02:10:01;;;;;;;5.05;4.18;;;;;;;20.02;76.16;98645.78;6239404;23;20013;-91
2022/08/22 02:12:57;;;;;;;5.53;4.35;;;;;;;20.01;76.56;98657.06;6192589;23;20008;-91
2022/08/22 02:15:29;;;;;;;6.10;4.18;;;;;;;19.92;76.71;98649.81;6246076;23;20038;-91
2022/08/22 02:17:58;;;;;;;6.10;4.10;;;;;;;20.05;76.68;98663.44;6194840;23;20398;-91
2022/08/22 02:20:53;;;;;;;8.63;4.28;;;;;;;20.02;76.42;98659.44;6218944;23;19992;-91
2022/08/22 02:23:29;;;;;;;7.18;4.72;;;;;;;20.04;76.36;98661.81;6218790;23;20083;-91
2022/08/22 02:26:02;;;;;;;9.60;4.90;;;;;;;20.04;76.38;98659.88;6246652;23;20007;-92
2022/08/22 02:29:15;;;;;;;6.35;4.40;;;;;;;19.99;76.37;98658.19;6219644;23;20008;-91
2022/08/22 02:31:51;;;;;;;5.47;3.88;;;;;;;20.03;76.60;98665.72;6168256;23;20360;-90
2022/08/22 02:34:20;;;;;;;6.68;4.22;;;;;;;19.87;76.68;98647.31;6212843;23;20004;-91
2022/08/22 02:37:08;;;;;;;4.60;3.92;;;;;;;19.88;77.17;98640.72;6212782;23;20067;-91
2022/08/22 02:39:50;;;;;;;6.85;4.60;;;;;;;19.88;76.64;98639.91;6166614;23;20076;-90
2022/08/22 02:42:28;;;;;;;7.70;4.35;;;;;;;20.05;76.49;98650.56;6191078;23;20427;-91
2022/08/22 02:45:08;;;;;;;5.63;4.30;;;;;;;19.96;76.12;98638.97;6212911;23;20004;-91
2022/08/22 02:47:55;;;;;;;5.97;4.25;;;;;;;20.01;76.29;98657.06;6163579;23;20395;-91
2022/08/22 02:50:33;;;;;;;9.68;4.70;;;;;;;19.91;76.85;98653.69;6212861;23;20020;-91
2022/08/22 02:53:22;;;;;;;8.55;5.00;;;;;;;19.86;76.77;98653.94;6212969;23;20493;-91
2022/08/22 02:55:59;;;;;;;6.93;4.97;;;;;;;19.71;77.14;98638.28;6213128;23;20000;-91
2022/08/22 02:58:51;;;;;;;9.80;5.40;;;;;;;19.78;77.43;98660.34;6212495;23;20371;-91
2022/08/22 03:01:39;;;;;;;7.38;5.63;;;;;;;19.75;77.60;98663.75;6187794;23;19997;-91
2022/08/22 03:04:23;;;;;;;9.50;6.03;;;;;;;19.71;77.78;98660.91;6245494;23;20008;-91
2022/08/22 03:07:10;;;;;;;9.10;5.85;;;;;;;19.66;77.74;98660.34;6246213;23;19997;-91
2022/08/22 03:09:47;;;;;;;8.15;6.28;;;;;;;19.61;78.40;98655.94;6193180;23;20004;-90
2022/08/22 03:12:28;;;;;;;9.07;5.53;;;;;;;19.69;78.22;98659.66;6196426;23;20003;-92
2022/08/22 03:15:25;;;;;;;8.20;5.53;;;;;;;19.82;77.82;98674.91;6212635;23;20025;-91
2022/08/22 03:18:12;;;;;;;8.10;5.65;;;;;;;19.87;77.38;98674.66;6203050;23;20088;-90
2022/08/22 03:21:03;;;;;;;12.70;5.97;;;;;;;19.92;77.50;98676.31;6215395;23;20474;-90
2022/08/22 03:23:38;;;;;;;16.10;6.78;;;;;;;19.91;77.67;98669.28;6192272;23;20015;-91
2022/08/22 03:26:41;;;;;;;16.92;8.27;;;;;;;19.93;77.62;98670.53;6213904;23;20028;-90
2022/08/22 03:29:21;;;;;;;16.23;8.05;;;;;;;19.93;77.65;98678.72;6154851;23;20515;-91
2022/08/22 03:32:03;;;;;;;15.05;8.18;;;;;;;19.89;77.48;98669.63;6133532;23;20035;-91
2022/08/22 03:34:30;;;;;;;13.10;7.47;;;;;;;19.91;77.72;98670.06;6157472;23;20016;-91
2022/08/22 03:37:18;;;;;;;13.48;7.75;;;;;;;19.87;77.54;98669.19;6133616;23;20016;-94
2022/08/22 03:39:55;;;;;;;14.10;8.27;;;;;;;19.77;78.11;98669.66;6133780;23;19997;-92
2022/08/22 03:42:26;;;;;;;14.48;8.43;;;;;;;19.68;78.28;98667.06;6157108;23;20352;-91
2022/08/22 03:45:03;;;;;;;13.02;8.38;;;;;;;19.69;78.17;98651.47;6182202;23;20004;-92
2022/08/22 03:47:57;;;;;;;17.90;8.73;;;;;;;19.84;77.89;98672.63;6182919;23;20005;-91
2022/08/22 03:50:58;;;;;;;;;;;;;;;;;;;;;
2022/08/22 03:53:54;;;;;;;12.52;7.32;;;;;;;19.75;78.13;98671.94;6208653;23;19981;-96
2022/08/22 03:56:48;;;;;;;15.80;7.78;;;;;;;19.72;78.63;98675.41;6180929;23;19997;-94
2022/08/22 03:59:58;;;;;;;9.05;5.97;;;;;;;19.77;77.94;98673.19;6190278;23;20001;-95
2022/08/22 04:02:48;;;;;;;10.10;4.88;;;;;;;19.92;77.38;98673.59;6099808;23;20465;-96
2022/08/22 04:05:23;;;;;;;6.13;4.60;;;;;;;19.79;77.59;98675.59;6214477;23;20000;-94
2022/08/22 04:07:57;;;;;;;8.05;4.47;;;;;;;19.77;77.42;98673.19;6214755;23;20071;-94
2022/08/22 04:10:34;;;;;;;6.85;4.90;;;;;;;19.79;77.71;98670.13;6215739;23;20078;-94
2022/08/22 04:17:07;;;;;;;7.82;5.03;;;;;;;19.93;76.85;98694.31;6248557;23;20024;-93
2022/08/22 04:19:51;;;;;;;8.45;4.60;;;;;;;19.89;77.08;98690.69;6216134;23;20459;-93
2022/08/22 04:23:00;;;;;;;8.57;5.43;;;;;;;19.90;77.01;98689.53;6219190;23;20004;-94
2022/08/22 04:25:43;;;;;;;6.72;4.40;;;;;;;19.93;76.89;98681.44;6222099;23;20059;-95
2022/08/22 04:28:51;;;;;;;7.63;4.75;;;;;;;20.06;76.16;98676.72;6194897;23;20000;-93
2022/08/22 04:37:52;;;;;;;11.25;4.47;;;;;;;20.13;75.68;98687.06;6097723;23;20053;-95
2022/08/22 04:40:28;;;;;;;8.13;3.53;;;;;;;20.14;74.68;98675.00;6073805;23;20013;-93
2022/08/22 04:43:00;;;;;;;6.82;4.03;;;;;;;20.21;74.22;98661.50;6038426;23;20026;-94
2022/08/22 04:45:55;;;;;;;4.97;3.50;;;;;;;20.48;73.58;98684.50;6078284;23;20003;-94
2022/08/22 04:48:24;;;;;;;8.68;5.63;;;;;;;20.52;73.58;98693.59;6014397;23;20148;-94
2022/08/22 04:51:21;;;;;;;13.25;5.97;;;;;;;20.48;73.56;98695.44;6037260;23;20063;-95
2022/08/22 04:53:47;;;;;;;10.05;6.03;;;;;;;20.46;74.40;98705.13;6012472;23;20014;-92
2022/08/22 04:56:50;;;;;;;15.00;7.57;;;;;;;20.54;73.61;98709.63;6037885;23;20031;-93
2022/08/22 04:59:19;;;;;;;14.50;7.25;;;;;;;20.51;74.34;98699.41;6116472;23;20001;-94
2022/08/22 05:01:59;;;;;;;12.80;7.43;;;;;;;20.59;73.34;98712.16;6125837;23;20021;-95
2022/08/22 05:05:03;;;;;;;15.50;7.93;;;;;;;20.72;72.88;98715.59;6091322;23;20462;-94
2022/08/22 05:07:34;;;;;;;14.70;10.02;;;;;;;20.55;72.63;98692.88;6159022;23;20013;-93
2022/08/22 05:11:23;;;;;;;;;;;;;;;;;;;;;
2022/08/22 05:21:02;;;;;;;21.20;11.05;;;;;;;20.84;72.86;98690.09;6148159;23;20028;-94
2022/08/22 05:23:50;;;;;;;21.67;11.07;;;;;;;20.81;73.02;98699.00;6050620;23;20540;-95
2022/08/22 05:26:17;;;;;;;17.65;9.77;;;;;;;20.82;72.08;98704.13;6119262;23;20001;-96
2022/08/22 05:28:55;;;;;;;17.88;10.20;;;;;;;20.82;72.64;98704.13;6116624;23;20009;-95
2022/08/22 05:31:34;;;;;;;24.80;9.93;;;;;;;20.95;71.95;98708.34;6172491;23;20478;-95
2022/08/22 05:34:35;;;;;;;12.93;9.10;;;;;;;21.06;71.63;98714.06;6157809;23;20005;-95
2022/08/22 05:37:16;;;;;;;17.67;9.35;;;;;;;21.28;71.82;98733.75;6125949;23;20005;-96
2022/08/22 05:40:04;;;;;;;11.07;7.47;;;;;;;21.17;71.13;98701.44;6170508;23;19997;-95
2022/08/22 05:42:38;;;;;;;11.43;7.35;;;;;;;21.23;70.58;98712.94;6189364;23;20001;-95
2022/08/22 05:45:06;;;;;;;22.63;12.55;;;;;;;21.29;70.66;98710.69;6163120;23;20048;-93
2022/08/22 05:47:42;;;;;;;10.52;6.65;;;;;;;21.44;70.51;98742.78;6137213;23;20004;-95
2022/08/22 05:50:17;;;;;;;10.93;6.00;;;;;;;21.34;69.21;98707.69;6163988;23;20071;-95
2022/08/22 05:53:05;;;;;;;12.55;7.53;;;;;;;21.54;69.21;98741.41;6139560;23;20040;-93
2022/08/22 05:55:46;;;;;;;10.77;6.95;;;;;;;21.48;70.02;98740.09;6186141;23;20008;-94
2022/08/22 06:05:02;;;;;;;10.60;5.45;;;;;;;21.42;69.95;98723.16;6247960;23;20011;-92
2022/08/22 06:07:40;;;;;;;8.52;5.93;;;;;;;21.46;69.45;98717.75;6197304;23;20061;-94
2022/08/22 06:10:19;;;;;;;11.07;4.93;;;;;;;21.43;69.37;98716.53;6195501;23;20004;-95
2022/08/22 06:12:51;;;;;;;19.63;10.55;;;;;;;21.63;69.10;98733.81;6196951;23;20080;-93
2022/08/22 06:16:01;;;;;;;21.15;13.20;;;;;;;21.78;68.30;98737.63;6220922;23;20007;-93
2022/08/22 06:18:27;;;;;;;17.08;9.82;;;;;;;21.66;68.39;98716.63;6223713;23;20000;-95
2022/08/22 06:20:53;;;;;;;12.25;5.47;;;;;;;21.77;68.01;98719.63;6209409;23;20392;-96
2022/08/22 06:23:36;;;;;;;10.02;6.20;;;;;;;21.63;68.54;98720.09;6240427;23;20488;-95
2022/08/22 06:26:11;;;;;;;8.77;6.00;;;;;;;21.75;68.14;98725.47;6201395;23;20003;-95
2022/08/22 06:28:40;;;;;;;9.85;6.18;;;;;;;21.95;68.28;98739.16;6234566;23;20091;-96
2022/08/22 06:31:33;;;;;;;;;;;;;;;;;;;;;
2022/08/22 06:34:13;;;;;;;8.02;5.28;;;;;;;22.10;66.77;98730.09;6167612;23;20416;-96
2022/08/22 06:36:47;;;;;;;14.48;6.30;;;;;;;22.14;67.04;98730.97;6110972;23;20499;-94
2022/08/22 06:40:08;;;;;;;10.25;6.43;;;;;;;22.40;66.55;98738.53;6136536;23;20001;-94
2022/08/22 06:42:37;;;;;;;17.00;10.45;;;;;;;22.53;65.69;98717.19;6160161;23;20012;-94
2022/08/22 06:45:16;;;;;;;7.43;4.38;;;;;;;22.59;64.65;98721.22;6135245;23;20016;-92
2022/08/22 06:48:04;;;;;;;10.80;6.35;;;;;;;22.60;65.38;98725.56;6168850;23;20005;-95
2022/08/22 06:50:48;;;;;;;10.10;5.80;;;;;;;22.51;64.92;98722.25;6155597;23;20009;-96
2022/08/22 06:53:34;;;;;;;10.18;5.95;;;;;;;22.48;65.55;98719.47;6152912;23;19989;-95
2022/08/22 06:56:08;;;;;;;16.63;7.95;;;;;;;22.22;65.84;98709.16;6155740;23;20012;-95
2022/08/22 06:59:10;;;;;;;9.23;5.43;;;;;;;22.39;66.04;98715.00;6171388;23;20072;-96
2022/08/22 07:01:42;;;;;;;;;;;;;;;22.54;65.67;98729.78;6149262;23;20064;-95
2022/08/22 07:04:10;;;;;;;9.02;5.15;;;;;;;22.55;65.86;98739.56;6181779;23;20219;-91
2022/08/22 07:06:48;;;;;;;7.18;4.75;;;;;;;22.54;66.51;98742.72;6245598;23;20011;-95
2022/08/22 07:09:42;;;;;;;9.90;7.53;;;;;;;22.56;67.15;98740.41;6199277;23;20509;-95
2022/08/22 07:12:19;;;;;;;9.18;5.18;;;;;;;22.32;69.76;98733.28;6221016;23;20000;-91
2022/08/22 07:14:49;;;;;;;11.18;6.45;;;;;;;22.24;72.33;98726.06;6194671;23;20339;-93
2022/08/22 07:17:17;;;;;;;10.85;7.75;;;;;;;22.27;71.85;98752.78;6193841;23;20000;-91
2022/08/22 07:20:04;;;;;;;9.77;7.75;;;;;;;22.14;73.36;98749.34;6189953;23;20012;-89
2022/08/22 07:22:52;;;;;;;14.70;12.05;;;;;;;22.09;75.76;98733.19;6195228;23;20490;-90
2022/08/22 07:25:17;;;;;;;12.35;6.75;;;;;;;22.27;75.75;98739.84;6188743;23;20359;-89
2022/08/22 07:37:42;;;;;;;;;;;;;;;;;;;;;
2022/08/22 07:40:07;;;;;;;10.75;5.18;;;;;;;22.60;72.22;98764.00;6070024;23;20451;-96
2022/08/22 07:43:05;;;;;;;8.60;6.75;;;;;;;22.63;72.48;98756.19;6121661;23;20005;-96
2022/08/22 07:45:59;;;;;;;8.40;6.15;;;;;;;22.79;71.97;98751.38;6106463;23;20103;-96
2022/08/22 07:48:28;;;;;;;8.82;5.63;;;;;;;22.65;71.73;98751.91;6049870;23;20002;-93
2022/08/22 07:51:12;;;;;;;12.20;6.70;;;;;;;22.62;72.08;98762.81;6071219;23;20002;-93
2022/08/22 07:54:05;;;;;;;9.82;6.25;;;;;;;22.74;70.48;98759.91;6074487;23;20045;-94
2022/08/22 07:56:38;;;;;;;10.52;5.50;;;;;;;22.52;69.57;98747.75;6073070;23;20082;-93
2022/08/22 07:59:16;;;;;;;6.60;4.90;;;;;;;22.83;68.33;98765.16;6047599;23;19998;-92
2022/08/22 08:01:47;;;;;;;7.97;4.72;;;;;;;22.78;67.36;98745.06;6071104;23;20354;-92
2022/08/22 08:04:18;;;;;;;7.30;3.92;;;;;;;22.66;67.08;98748.03;6091621;23;20009;-91
2022/08/22 08:06:47;;;;;;;9.35;6.97;;;;;;;22.64;69.88;98742.13;6105176;23;20205;-93
2022/08/22 08:09:14;;;;;;;8.13;5.50;;;;;;;22.86;70.48;98767.97;6106931;23;20013;-95
2022/08/22 08:11:49;;;;;;;6.75;4.20;;;;;;;23.17;68.68;98750.47;6158480;23;20087;-95
2022/08/22 08:14:15;;;;;;;7.10;3.60;;;;;;;23.22;65.78;98748.56;6183983;23;20005;-93
2022/08/22 08:16:46;;;;;;;7.70;4.40;;;;;;;23.45;65.61;98743.03;6109485;23;20469;-93
2022/08/22 08:19:12;;;;;;;7.80;4.07;;;;;;;23.21;66.96;98747.78;6137029;23;20001;-92
2022/08/22 08:21:45;;;;;;;4.97;3.70;;;;;;;23.37;64.95;98755.88;6186571;23;20023;-89
2022/08/22 08:24:14;;;;;;;3.63;2.70;;;;;;;23.25;62.90;98754.13;6147971;23;20424;-90
2022/08/22 08:29:54;;;;;;;10.23;3.67;;;;;;;23.63;65.72;98746.03;6172063;23;20097;-92
2022/08/22 08:32:56;;;;;;;6.63;3.92;;;;;;;24.03;62.33;98745.44;6141023;23;20028;-92
2022/08/22 08:35:34;;;;;;;7.72;3.78;;;;;;;24.30;63.50;98748.09;6180014;23;20079;-90
2022/08/22 08:38:13;;;;;;;5.63;3.88;;;;;;;24.22;60.80;98736.22;6137979;23;20001;-93
2022/08/22 08:41:19;;;;;;;5.20;4.15;;;;;;;24.21;61.95;98751.13;6168770;23;20007;-95
2022/08/22 08:44:26;;;;;;;5.20;3.17;;;;;;;24.19;63.15;98759.75;6191919;23;20343;-94
2022/08/22 08:47:25;;;;;;;4.90;3.17;;;;;;;24.29;60.82;98757.53;6190270;23;20005;-92
2022/08/22 08:50:28;;;;;;;5.18;3.10;;;;;;;24.39;60.30;98756.84;6161222;23;20471;-94
2022/08/22 08:53:30;;;;;;;7.68;6.53;;;;;;;24.34;59.85;98758.00;6184347;23;20438;-94
2022/08/22 08:56:32;;;;;;;7.97;3.65;;;;;;;24.25;60.40;98740.97;6159834;23;20059;-91
2022/08/22 09:03:03;;;;;;;7.18;3.60;;;;;;;24.44;61.76;98755.72;6018687;23;20030;-92
2022/08/22 09:05:31;;;;;;;11.00;6.20;;;;;;;24.44;62.34;98752.97;6184188;23;20076;-93
2022/08/22 09:08:06;;;;;;;11.65;6.60;;;;;;;24.36;59.79;98752.09;6185368;23;20000;-89
2022/08/22 09:10:37;;;;;;;7.95;5.00;;;;;;;24.45;60.40;98749.06;6183717;23;20004;-88
2022/08/22 10:33:40;;;;;;;6.78;2.85;;;;;;;26.68;50.77;98690.56;6213170;23;19966;-91
2022/08/22 10:36:18;;;;;;;4.05;2.85;;;;;;;26.42;51.06;98671.19;6164203;23;20341;-92
2022/08/22 10:38:53;;;;;;;5.25;3.30;;;;;;;26.36;51.09;98674.75;6143471;23;20447;-91
2022/08/22 10:41:41;;;;;;;4.25;2.60;;;;;;;26.52;51.10;98682.63;6141527;23;20350;-95
2022/08/22 10:44:21;;;;;;;3.83;2.22;;;;;;;26.58;50.75;98697.66;6168506;23;20004;-90
2022/08/22 10:47:44;;;;;;;3.53;2.55;;;;;;;26.36;50.31;98681.03;6189708;23;20001;-96
2022/08/22 10:50:21;;;;;;;3.85;2.42;;;;;;;26.67;50.11;98675.19;6173032;23;20534;-93
2022/08/22 10:53:28;;;;;;;3.65;2.70;;;;;;;26.78;49.66;98679.53;6181784;23;20011;-96
2022/08/22 10:55:41;;;;;;;4.32;2.72;;;;;;;27.01;49.09;98692.16;6187370;23;20001;-96
2022/08/22 11:01:28;;;;;;;6.10;4.53;;;;;;;26.65;50.75;98659.00;6225372;22;20024;-93
2022/08/22 11:04:29;;;;;;;4.15;2.67;;;;;;;26.51;50.41;98670.03;6108273;23;20055;-95
2022/08/22 11:07:44;;;;;;;4.53;2.72;;;;;;;26.47;50.82;98647.13;6111071;23;20027;-96
2022/08/22 11:10:18;;;;;;;3.70;2.70;;;;;;;26.71;50.53;98653.88;6043190;23;20023;-96
2022/08/22 11:12:51;;;;;;;4.35;2.95;;;;;;;26.96;49.69;98651.13;6100021;23;20007;-94
2022/08/22 11:15:45;;;;;;;6.72;3.08;;;;;;;27.48;48.72;98659.72;6050903;23;20059;-95
2022/08/22 11:18:51;;;;;;;3.58;2.45;;;;;;;27.49;47.45;98664.03;6073087;23;20011;-94
2022/08/22 11:21:31;;;;;;;4.75;2.58;;;;;;;27.55;46.97;98645.06;6047505;23;20058;-95
2022/08/22 11:24:08;;;;;;;5.30;2.63;;;;;;;27.67;46.85;98641.09;6067853;23;20003;-96
2022/08/22 11:26:44;;;;;;;3.72;2.50;;;;;;;27.89;45.58;98637.06;6066225;23;20014;-95
2022/08/22 11:29:48;;;;;;;4.93;2.70;;;;;;;28.02;45.87;98637.38;6043878;23;20415;-94
2022/08/22 11:32:43;;;;;;;5.07;3.25;;;;;;;28.01;45.82;98636.56;6093282;23;20010;-96
2022/08/22 11:35:42;;;;;;;3.90;2.20;;;;;;;27.73;46.17;98625.66;6125123;23;20028;-95
2022/08/22 11:38:17;;;;;;;5.85;2.90;;;;;;;27.91;45.61;98631.91;6165766;23;20029;-96
2022/08/22 11:41:00;;;;;;;4.32;2.78;;;;;;;28.16;45.38;98645.59;6139169;23;19998;-95
2022/08/22 11:43:26;;;;;;;3.13;2.35;;;;;;;28.18;44.97;98643.22;6143717;23;20001;-96
2022/08/22 11:46:12;;;;;;;9.02;8.10;;;;;;;28.14;44.87;98633.34;6135074;23;20005;-96
2022/08/22 11:49:05;;;;;;;8.23;4.50;;;;;;;27.95;45.04;98621.59;6138785;23;20511;-92
2022/08/22 11:51:36;;;;;;;6.18;4.28;;;;;;;27.85;45.18;98636.25;6106138;23;20074;-96
2022/08/22 11:54:05;;;;;;;4.65;3.08;;;;;;;27.86;44.78;98629.53;6137061;23;20085;-95
2022/08/22 11:56:52;;;;;;;5.30;2.10;;;;;;;27.88;44.76;98626.38;6130681;23;20001;-92
2022/08/22 11:59:39;;;;;;;5.55;2.53;;;;;;;28.09;44.32;98615.19;6087939;23;19993;-95
2022/08/22 12:02:05;;;;;;;3.78;2.80;;;;;;;28.22;43.93;98607.19;6142110;23;20024;-93
2022/08/22 12:04:55;;;;;;;5.40;3.00;;;;;;;28.34;43.04;98605.91;6161812;23;20025;-94
2022/08/22 12:07:58;;;;;;;3.58;2.50;;;;;;;28.50;42.31;98614.53;6135491;23;20004;-94
2022/08/22 12:10:28;;;;;;;6.50;2.85;;;;;;;28.23;42.74;98588.63;6138636;23;20084;-96
2022/08/22 12:13:32;;;;;;;4.47;2.83;;;;;;;28.06;43.21;98601.34;6144531;23;20020;-94
2022/08/22 12:20:06;;;;;;;5.50;3.95;;;;;;;28.49;43.71;98601.84;6070189;23;20072;-95
2022/08/22 12:23:00;;;;;;;3.20;2.65;;;;;;;28.30;42.70;98594.88;6069090;23;20002;-96
2022/08/22 12:26:02;;;;;;;6.50;3.60;;;;;;;28.55;42.98;98593.91;6067988;23;20003;-93
2022/08/22 12:28:46;;;;;;;5.95;4.30;;;;;;;28.42;43.66;98590.81;6166276;23;20388;-94
2022/08/22 12:31:43;;;;;;;7.03;3.33;;;;;;;28.54;42.99;98592.34;6167386;23;20009;-93
2022/08/22 12:34:19;;;;;;;6.05;3.78;;;;;;;28.53;43.34;98588.78;6177254;23;20008;-95
2022/08/22 13:05:30;;;;;;;6.10;3.05;;;;;;;28.85;41.45;98593.25;6174018;22;20339;-96
2022/08/22 13:22:48;;;;;;;5.85;2.85;;;;;;;28.62;42.43;98602.16;6155881;23;20043;-95
2022/08/22 13:34:42;;;;;;;3.90;2.85;;;;;;;28.06;43.93;98610.47;6242254;22;20022;-96
2022/08/22 13:48:11;;;;;;;3.03;2.60;;;;;;;27.69;43.89;98594.44;6128376;22;20402;-95
2022/08/22 13:51:06;;;;;;;3.78;2.17;;;;;;;27.78;43.67;98598.31;6120578;23;20017;-95
2022/08/22 13:53:59;;;;;;;3.47;2.60;;;;;;;27.81;43.87;98607.81;6190903;23;20004;-96
2022/08/22 13:56:31;;;;;;;4.50;3.40;;;;;;;27.74;44.14;98596.78;6226238;23;20060;-95
2022/08/22 13:58:58;;;;;;;3.60;2.80;;;;;;;27.63;44.16;98604.34;6174464;23;20032;-96
2022/08/22 14:01:36;;;;;;;4.60;2.60;;;;;;;27.84;43.97;98620.06;6148079;23;20032;-95
2022/08/22 14:04:27;;;;;;;8.05;2.60;;;;;;;27.77;43.78;98605.06;6204298;23;20016;-96
2022/08/22 14:10:05;;;;;;;3.70;2.58;;;;;;;27.75;44.01;98604.69;6252674;22;20024;-95
2022/08/22 14:13:17;;;;;;;5.13;2.53;;;;;;;27.67;44.03;98591.28;6166326;23;20009;-95
2022/08/22 14:28:17;;;;;;;;;;;;;;;;;;;;;
2022/08/22 14:39:42;;;;;;;5.38;3.50;;;;;;;27.54;45.89;98594.50;6222196;22;20029;-94
2022/08/22 14:42:28;;;;;;;5.28;3.00;;;;;;;27.55;46.21;98590.53;6178229;23;20410;-95
2022/08/22 14:48:20;;;;;;;5.45;3.28;;;;;;;27.72;47.13;98599.94;6193667;22;20036;-96
2022/08/22 14:50:53;;;;;;;8.35;3.53;;;;;;;27.65;47.38;98591.69;6192596;23;20020;-95
2022/08/22 14:53:26;;;;;;;9.02;4.00;;;;;;;27.71;48.01;98597.59;6194282;23;20008;-96
2022/08/22 14:56:23;;;;;;;5.72;2.90;;;;;;;27.78;47.22;98598.31;6196242;23;20004;-95
2022/08/22 14:59:12;;;;;;;7.28;3.70;;;;;;;27.53;47.76;98581.84;6196919;23;20035;-95
2022/08/22 15:02:15;;;;;;;4.05;3.13;;;;;;;27.54;47.73;98594.50;6176039;23;20048;-95
2022/08/22 15:06:11;;;;;;;7.18;3.17;;;;;;;27.39;47.92;98592.97;6226573;23;20047;-94
2022/08/22 15:25:44;;;;;;;5.28;3.15;;;;;;;27.32;48.62;98576.44;6135457;22;20049;-95
2022/08/22 15:45:48;;;;;;;5.13;3.28;;;;;;;27.07;49.88;98562.66;6141227;22;20032;-92
2022/08/22 15:51:12;;;;;;;6.72;3.38;;;;;;;26.91;49.60;98549.28;6178775;23;20339;-96
2022/08/22 15:54:45;;;;;;;;;;;;;;;;;;;;;
2022/08/22 16:01:00;;;;;;;4.68;3.65;;;;;;;26.74;53.08;98557.19;6188417;23;20005;-95
2022/08/22 16:30:12;;;;;;;8.18;3.90;;;;;;;26.18;56.11;98586.38;6203595;22;20214;-95
2022/08/22 16:32:38;;;;;;;6.28;3.60;;;;;;;26.16;55.29;98583.22;6158636;23;20442;-94
2022/08/22 16:35:04;;;;;;;5.95;3.80;;;;;;;25.93;56.25;98565.06;6132999;23;20001;-91
2022/08/22 16:37:39;;;;;;;7.82;4.20;;;;;;;26.05;55.89;98579.69;6133421;23;20007;-91
2022/08/22 16:40:09;;;;;;;5.57;3.53;;;;;;;26.11;55.78;98605.69;6109653;23;20001;-93
2022/08/22 16:42:38;;;;;;;7.38;4.07;;;;;;;25.81;56.58;98601.25;6133444;23;20008;-92
2022/08/22 16:45:13;;;;;;;6.55;3.97;;;;;;;25.89;56.46;98608.41;6109516;23;20004;-91
2022/08/22 16:48:02;;;;;;;7.75;4.25;;;;;;;25.81;56.19;98612.28;6111450;23;19997;-92
2022/08/22 16:50:39;;;;;;;7.47;4.90;;;;;;;25.93;56.13;98614.72;6114961;23;20420;-92
2022/08/22 16:53:44;;;;;;;10.25;4.30;;;;;;;25.79;56.32;98598.91;6134451;23;20407;-90
2022/08/22 16:56:31;;;;;;;6.03;3.45;;;;;;;25.93;56.20;98624.97;6093344;23;20010;-92
2022/08/22 16:58:57;;;;;;;7.90;3.92;;;;;;;25.81;56.70;98620.56;6068889;23;20007;-91
2022/08/22 17:01:53;;;;;;;7.05;4.50;;;;;;;25.65;57.89;98631.13;6123689;23;20063;-91
2022/08/22 17:04:43;;;;;;;7.72;3.88;;;;;;;25.64;57.29;98635.88;6158054;23;20009;-92
2022/08/22 17:07:41;;;;;;;9.48;4.18;;;;;;;25.15;58.66;98610.41;6162490;23;20000;-93
2022/08/22 17:10:16;;;;;;;6.15;3.83;;;;;;;25.36;58.61;98625.50;6115214;23;20001;-95
2022/08/22 17:12:50;;;;;;;6.13;3.65;;;;;;;25.22;58.80;98630.94;6160414;23;20005;-92
2022/08/22 17:15:16;;;;;;;5.25;4.10;;;;;;;25.13;59.59;98631.22;6185889;23;20001;-92
2022/08/22 17:18:03;;;;;;;9.20;4.22;;;;;;;24.87;60.33;98622.03;6160057;23;20007;-91
2022/08/22 17:20:46;;;;;;;12.23;4.63;;;;;;;24.96;59.80;98644.50;6135848;23;19999;-92
2022/08/22 17:23:33;;;;;;;6.25;4.07;;;;;;;24.95;60.06;98653.19;6137563;23;20420;-92
2022/08/22 17:26:07;;;;;;;8.30;4.20;;;;;;;25.01;59.63;98654.41;6159596;23;20001;-92
2022/08/22 17:28:41;;;;;;;8.05;4.15;;;;;;;24.78;60.94;98652.66;6159838;23;20011;-93
2022/08/22 17:31:30;;;;;;;8.43;3.72;;;;;;;24.67;60.56;98645.47;6133615;23;20023;-93
2022/08/22 17:33:58;;;;;;;6.15;4.22;;;;;;;24.79;60.96;98672.72;6167871;23;20079;-92
2022/08/22 17:37:02;;;;;;;5.18;3.78;;;;;;;24.78;60.62;98685.69;6189569;23;20039;-92
2022/08/22 17:39:35;;;;;;;8.68;5.20;;;;;;;24.75;60.36;98697.47;6185253;23;20028;-92
2022/08/22 17:42:25;;;;;;;7.47;4.45;;;;;;;24.79;60.91;98703.78;6189341;23;20026;-92